Nags Head, NC (27959)

5:05 PM EST on January 24, 2017 (GMT -0500)
South Ridge | | Change Station
Active Advisory: Small Craft Advisory

Elev 10 ft 35.95 °N, 75.63 °W | Updated 3 seconds ago

Clear
Clear
50.0 °F
Feels Like 49 °F
N
4.0
Wind Variable Wind from West
Gusts 9.0 mph

Today
High -- | Low -- °F
--% Chance of Precip.
Yesterday
High -- | Low -- °F
Precip. -- in
Pressure 29.58 in
Visibility 10.0 miles
Clouds Clear
Windchill 49 °F
Dew Point 44 °F
Humidity 79%
Rainfall 0.00 in
Snow Depth Not available.
7:08 AM 5:21 PM
Waning Crescent, 9% visible
METAR KMQI 242155Z AUTO 31007KT 10SM CLR 10/04 A2958 RMK AO2 T01010035
Pressure 29.58 in
Visibility 10.0 miles
Clouds Clear
Windchill 49 °F
Dew Point 44 °F
Humidity 79%
Rainfall 0.00 in
Snow Depth Not available.
7:08 AM 5:21 PM
Waning Crescent, 9% visible
METAR KMQI 242155Z AUTO 31007KT 10SM CLR 10/04 A2958 RMK AO2 T01010035

Get Your Daily Forecast Email!

Thanks for signing up!

Be on the lookout for a verification email in your inbox.

You'll start receiving the daily forecast at 8 AM.

×

10-Day Weather Forecast

Almanac

Astronomy

Jan. 24, 2017 Rise Set
Actual Time
Civil Twilight
Nautical Twilight
Astronomical Twilight
Moon
Length of Visible Light
Length of Day
Tomorrow will be .
, % of the Moon is Illuminated

Today's Extremes

State Highs State Lows

Community

WunderPhotos

Upload Photos

1,962,540 photos uploaded!

WunderBlog® & News

Nearby

Air Quality

  Air Quality AQ Index Pollutant
Not available.

Snow Depth

Station Depth Elevation

Earthquake Activity

City Distance Mag. Time & Date
Minimum magnitude displayed is 2.5.

Coastal Water Temperatures

Place Temperature

Stations

Nearby Weather Stations

Station Location Temp. Windchill Dew Point Humidity Wind Precip. Elev Updated Type
                   

Watches & Warnings

Small Craft Advisory
Issued: 3:16 PM EST Jan. 24, 2017 – National Weather Service

... Small Craft Advisory remains in effect until 4 am EST
Wednesday...

* winds... west 15 to 25 kt.

* Seas... 4 to 7 feet.

Precautionary/preparedness actions...

A Small Craft Advisory means that wind speeds of 25 to 33 knots
and/or seas of 6 feet or greater are expected to produce
hazardous wave conditions to small craft. Inexperienced
mariners... especially those operating smaller vessels should
avoid navigating in these conditions.